Bremerton, WA

4:57 PM PDT on August 31, 2015 (GMT -0700)
Roswell Drive | | Change Station
CLOSE
Current Station
Personal Weather Station
Location: Bremerton, WA
Elevation: 368 ft
Nearby Weather Stations

Elev 368 ft 47.60 °N, 122.63 °W | Updated 4 minutes ago

Overcast
Overcast
63.0 °F
Feels Like 63.0 °F
N
8.9
Wind Variable Wind from West

Today
High -- | Low -- °F
--% Chance of Precip.
Yesterday
High -- | Low -- °F
Precip. -- in
6:27 AM 7:53 PM
Waning Gibbous, 93% visible
Pressure 29.96 in
Visibility 10.0 miles
Clouds Few 2200 ft
Scattered Clouds 3000 ft
Mostly Cloudy 3600 ft
Dew Point 61 °F
Humidity 94%
Rainfall 0.00 in
Snow Depth Not available.
UV 2 out of 12
Pollen .30 out of 12
Air Quality Not available.
Flu Activity Not available.
METAR KPWT 312355Z AUTO 20013KT 10SM FEW022 SCT030 BKN036 17/15 A2996 RMK AO1 P0002 60033 10180 20140 401900130 57003
Pressure 29.96 in
Visibility 10.0 miles
Clouds Few 2200 ft
Scattered Clouds 3000 ft
Mostly Cloudy 3600 ft
Dew Point 61 °F
Humidity 94%
Rainfall 0.00 in
Snow Depth Not available.
UV 2 out of 12
Pollen .30 out of 12
Air Quality Not available.
Flu Activity Not available.
METAR KPWT 312355Z AUTO 20013KT 10SM FEW022 SCT030 BKN036 17/15 A2996 RMK AO1 P0002 60033 10180 20140 401900130 57003

10-Day Weather Forecast

×

Almanac

Astronomy

Aug. 31, 2015 Rise Set
Actual Time
Civil Twilight
Nautical Twilight
Astronomical Twilight
Moon
Length of Visible Light
Length of Day
Tomorrow will be .
, % of the Moon is Illuminated

Today's Extremes

State Highs State Lows

Community

WunderPhotos

Upload Photos

1,851,395 photos uploaded!

WunderBlogs® & News

Nearby

Air Quality

  Air Quality AQ Index Pollutant
Not available.

Snow Depth

Station Depth Elevation

Earthquake Activity

City Distance Mag. Time & Date
Minimum magnitude displayed is 2.5.

Coastal Water Temperatures

Place Temperature

Stations

Nearby Weather Stations

Station Location Temp. Windchill Dew Point Humidity Wind Precip. Elev Updated Type